sensor_id;sensor_type;location;lat;lon;timestamp;pressure;altitude;pressure_sealevel;temperature;humidity
6387;BME280;3226;42.162;24.756;2023-05-08T00:00:39;99937.03;;;12.93;63.87
6387;BME280;3226;42.162;24.756;2023-05-08T00:03:07;99937.03;;;12.93;64.60
6387;BME280;3226;42.162;24.756;2023-05-08T00:05:35;99937.16;;;12.92;64.22
6387;BME280;3226;42.162;24.756;2023-05-08T00:08:05;99931.91;;;12.92;64.40
6387;BME280;3226;42.162;24.756;2023-05-08T00:10:33;99905.88;;;12.79;64.80
6387;BME280;3226;42.162;24.756;2023-05-08T00:13:01;99934.84;;;12.98;64.43
6387;BME280;3226;42.162;24.756;2023-05-08T00:15:29;99938.00;;;12.92;63.55
6387;BME280;3226;42.162;24.756;2023-05-08T00:17:57;99933.59;;;13.02;64.03
6387;BME280;3226;42.162;24.756;2023-05-08T00:20:25;99933.53;;;12.83;63.67
6387;BME280;3226;42.162;24.756;2023-05-08T00:22:53;99936.06;;;12.84;62.74
6387;BME280;3226;42.162;24.756;2023-05-08T00:25:23;99934.13;;;12.46;63.48
6387;BME280;3226;42.162;24.756;2023-05-08T00:27:51;99925.63;;;12.32;63.97
6387;BME280;3226;42.162;24.756;2023-05-08T00:30:19;99933.59;;;12.21;64.56
6387;BME280;3226;42.162;24.756;2023-05-08T00:32:47;99920.47;;;12.21;65.27
6387;BME280;3226;42.162;24.756;2023-05-08T00:35:15;99924.28;;;12.07;66.21
6387;BME280;3226;42.162;24.756;2023-05-08T00:37:43;99912.94;;;12.37;65.00
6387;BME280;3226;42.162;24.756;2023-05-08T00:40:11;99910.97;;;12.29;64.19
6387;BME280;3226;42.162;24.756;2023-05-08T00:42:41;99932.88;;;12.40;65.28
6387;BME280;3226;42.162;24.756;2023-05-08T00:45:09;99924.72;;;12.43;63.79
6387;BME280;3226;42.162;24.756;2023-05-08T00:47:38;99932.91;;;12.60;64.41
6387;BME280;3226;42.162;24.756;2023-05-08T00:50:07;99934.22;;;12.34;64.06
6387;BME280;3226;42.162;24.756;2023-05-08T00:52:36;99937.75;;;12.23;63.47
6387;BME280;3226;42.162;24.756;2023-05-08T00:55:05;99940.97;;;12.37;63.66
6387;BME280;3226;42.162;24.756;2023-05-08T00:57:34;99942.63;;;12.28;64.41
6387;BME280;3226;42.162;24.756;2023-05-08T01:00:06;99944.09;;;12.21;64.87
6387;BME280;3226;42.162;24.756;2023-05-08T01:02:34;99953.25;;;12.26;64.45
6387;BME280;3226;42.162;24.756;2023-05-08T01:05:02;99947.22;;;12.14;65.06
6387;BME280;3226;42.162;24.756;2023-05-08T01:07:31;99928.34;;;11.78;65.79
6387;BME280;3226;42.162;24.756;2023-05-08T01:09:59;99948.25;;;11.81;65.98
6387;BME280;3226;42.162;24.756;2023-05-08T01:12:35;99947.22;;;11.93;65.99
6387;BME280;3226;42.162;24.756;2023-05-08T01:15:12;99955.69;;;12.18;64.34
6387;BME280;3226;42.162;24.756;2023-05-08T01:17:51;99961.53;;;12.22;64.55
6387;BME280;3226;42.162;24.756;2023-05-08T01:20:31;99960.75;;;12.31;63.81
6387;BME280;3226;42.162;24.756;2023-05-08T01:23:34;99962.66;;;12.29;64.85
6387;BME280;3226;42.162;24.756;2023-05-08T01:29:42;99963.06;;;12.03;66.64
6387;BME280;3226;42.162;24.756;2023-05-08T01:32:18;99963.56;;;12.18;64.53
6387;BME280;3226;42.162;24.756;2023-05-08T01:34:54;99960.63;;;12.11;65.27
6387;BME280;3226;42.162;24.756;2023-05-08T01:37:30;99949.25;;;12.01;65.11
6387;BME280;3226;42.162;24.756;2023-05-08T01:40:07;99952.44;;;12.05;65.97
6387;BME280;3226;42.162;24.756;2023-05-08T01:42:49;99957.25;;;11.67;66.42
6387;BME280;3226;42.162;24.756;2023-05-08T01:45:22;99949.66;;;11.64;66.78
6387;BME280;3226;42.162;24.756;2023-05-08T01:48:00;99960.66;;;11.79;66.06
6387;BME280;3226;42.162;24.756;2023-05-08T01:50:32;99948.16;;;11.50;66.13
6387;BME280;3226;42.162;24.756;2023-05-08T01:53:11;99953.03;;;11.54;67.63
6387;BME280;3226;42.162;24.756;2023-05-08T01:55:41;99948.75;;;11.75;66.26
6387;BME280;3226;42.162;24.756;2023-05-08T01:58:10;99959.19;;;11.65;66.37
6387;BME280;3226;42.162;24.756;2023-05-08T02:00:40;99955.28;;;11.80;65.80
6387;BME280;3226;42.162;24.756;2023-05-08T02:03:12;99965.22;;;11.77;65.80
6387;BME280;3226;42.162;24.756;2023-05-08T02:05:41;99945.09;;;11.66;65.27
6387;BME280;3226;42.162;24.756;2023-05-08T02:08:11;99962.00;;;11.73;65.17
6387;BME280;3226;42.162;24.756;2023-05-08T02:10:41;99933.38;;;11.70;64.11
6387;BME280;3226;42.162;24.756;2023-05-08T02:13:10;99957.44;;;11.75;64.53
6387;BME280;3226;42.162;24.756;2023-05-08T02:15:41;99917.47;;;11.62;64.29
6387;BME280;3226;42.162;24.756;2023-05-08T02:18:10;99950.16;;;11.57;64.31
6387;BME280;3226;42.162;24.756;2023-05-08T02:20:40;99949.00;;;11.50;64.52
6387;BME280;3226;42.162;24.756;2023-05-08T02:23:09;99957.09;;;11.47;65.30
6387;BME280;3226;42.162;24.756;2023-05-08T02:25:38;99959.00;;;11.45;65.55
6387;BME280;3226;42.162;24.756;2023-05-08T02:28:07;99950.06;;;11.48;65.21
6387;BME280;3226;42.162;24.756;2023-05-08T02:30:35;99951.38;;;11.53;65.04
6387;BME280;3226;42.162;24.756;2023-05-08T02:33:04;99957.81;;;11.49;65.49
6387;BME280;3226;42.162;24.756;2023-05-08T02:35:37;99956.78;;;11.40;65.77
6387;BME280;3226;42.162;24.756;2023-05-08T02:38:06;99956.31;;;11.35;65.60
6387;BME280;3226;42.162;24.756;2023-05-08T02:40:38;99963.47;;;11.33;66.03
6387;BME280;3226;42.162;24.756;2023-05-08T02:43:08;99957.59;;;11.41;66.15
6387;BME280;3226;42.162;24.756;2023-05-08T02:45:42;99969.63;;;11.43;66.65
6387;BME280;3226;42.162;24.756;2023-05-08T02:48:16;99966.84;;;11.56;65.46
6387;BME280;3226;42.162;24.756;2023-05-08T02:50:53;99961.34;;;11.60;66.40
6387;BME280;3226;42.162;24.756;2023-05-08T02:53:32;99961.00;;;11.20;67.46
6387;BME280;3226;42.162;24.756;2023-05-08T02:56:07;99960.16;;;11.20;67.75
6387;BME280;3226;42.162;24.756;2023-05-08T02:58:43;99961.50;;;11.14;67.53
6387;BME280;3226;42.162;24.756;2023-05-08T03:01:18;99959.03;;;10.90;68.16
6387;BME280;3226;42.162;24.756;2023-05-08T03:03:52;99962.03;;;10.85;69.49
6387;BME280;3226;42.162;24.756;2023-05-08T03:06:25;99956.72;;;11.08;66.61
6387;BME280;3226;42.162;24.756;2023-05-08T03:08:57;99963.38;;;11.12;67.90
6387;BME280;3226;42.162;24.756;2023-05-08T03:11:35;99962.34;;;10.92;66.68
6387;BME280;3226;42.162;24.756;2023-05-08T03:14:09;99937.38;;;10.76;65.42
6387;BME280;3226;42.162;24.756;2023-05-08T03:16:38;99970.47;;;10.89;67.93
6387;BME280;3226;42.162;24.756;2023-05-08T03:19:14;99964.50;;;10.87;66.91
6387;BME280;3226;42.162;24.756;2023-05-08T03:21:49;99963.88;;;11.06;67.22
6387;BME280;3226;42.162;24.756;2023-05-08T03:24:18;99976.13;;;11.17;66.67
6387;BME280;3226;42.162;24.756;2023-05-08T03:26:49;99974.06;;;11.32;66.63
6387;BME280;3226;42.162;24.756;2023-05-08T03:29:17;99987.53;;;11.38;66.58
6387;BME280;3226;42.162;24.756;2023-05-08T03:31:46;99990.16;;;11.38;65.49
6387;BME280;3226;42.162;24.756;2023-05-08T03:34:16;99989.22;;;11.28;66.37
6387;BME280;3226;42.162;24.756;2023-05-08T03:36:46;99982.94;;;11.19;64.27
6387;BME280;3226;42.162;24.756;2023-05-08T03:39:15;99972.31;;;11.21;64.52
6387;BME280;3226;42.162;24.756;2023-05-08T03:41:43;99985.78;;;11.27;65.36
6387;BME280;3226;42.162;24.756;2023-05-08T03:44:12;99987.53;;;11.27;65.17
6387;BME280;3226;42.162;24.756;2023-05-08T03:46:41;99988.41;;;11.27;65.11
6387;BME280;3226;42.162;24.756;2023-05-08T03:49:10;99994.44;;;11.28;66.22
6387;BME280;3226;42.162;24.756;2023-05-08T03:51:39;99990.16;;;11.27;65.65
6387;BME280;3226;42.162;24.756;2023-05-08T03:54:07;99993.13;;;11.34;65.96
6387;BME280;3226;42.162;24.756;2023-05-08T03:56:36;99991.47;;;11.33;65.68
6387;BME280;3226;42.162;24.756;2023-05-08T03:59:11;99994.81;;;11.35;66.51
6387;BME280;3226;42.162;24.756;2023-05-08T04:01:49;99997.88;;;11.51;65.60
6387;BME280;3226;42.162;24.756;2023-05-08T04:04:24;99989.09;;;11.62;65.96
6387;BME280;3226;42.162;24.756;2023-05-08T04:06:59;100005.59;;;11.85;66.28
6387;BME280;3226;42.162;24.756;2023-05-08T04:09:35;100008.31;;;11.63;65.38
6387;BME280;3226;42.162;24.756;2023-05-08T04:12:19;100017.53;;;11.78;66.10
6387;BME280;3226;42.162;24.756;2023-05-08T04:14:52;99961.53;;;11.68;64.61
6387;BME280;3226;42.162;24.756;2023-05-08T04:17:27;100009.59;;;12.22;63.25
6387;BME280;3226;42.162;24.756;2023-05-08T04:20:03;100005.44;;;12.20;63.16
6387;BME280;3226;42.162;24.756;2023-05-08T04:22:32;100015.53;;;12.46;63.24
6387;BME280;3226;42.162;24.756;2023-05-08T04:25:02;100016.25;;;12.48;62.46
6387;BME280;3226;42.162;24.756;2023-05-08T04:27:36;100010.28;;;12.46;62.06
6387;BME280;3226;42.162;24.756;2023-05-08T04:30:07;100007.25;;;12.19;63.28
6387;BME280;3226;42.162;24.756;2023-05-08T04:32:36;100010.66;;;11.98;64.04
6387;BME280;3226;42.162;24.756;2023-05-08T04:35:08;100008.47;;;11.82;65.30
6387;BME280;3226;42.162;24.756;2023-05-08T04:37:36;100002.75;;;12.10;65.02
6387;BME280;3226;42.162;24.756;2023-05-08T04:40:05;100004.34;;;12.22;64.49
6387;BME280;3226;42.162;24.756;2023-05-08T04:42:35;100008.19;;;12.39;63.88
6387;BME280;3226;42.162;24.756;2023-05-08T04:45:05;100008.72;;;12.64;62.73
6387;BME280;3226;42.162;24.756;2023-05-08T04:47:33;100011.69;;;12.81;62.88
6387;BME280;3226;42.162;24.756;2023-05-08T04:50:02;100008.09;;;12.82;62.63
6387;BME280;3226;42.162;24.756;2023-05-08T04:52:29;100011.00;;;12.79;62.58
6387;BME280;3226;42.162;24.756;2023-05-08T04:54:58;100013.50;;;12.80;62.65
6387;BME280;3226;42.162;24.756;2023-05-08T04:57:26;100011.81;;;13.10;62.87
6387;BME280;3226;42.162;24.756;2023-05-08T04:59:55;100008.31;;;13.10;60.52
6387;BME280;3226;42.162;24.756;2023-05-08T05:02:24;99989.72;;;12.92;62.67
6387;BME280;3226;42.162;24.756;2023-05-08T05:04:52;99997.25;;;13.16;62.02
6387;BME280;3226;42.162;24.756;2023-05-08T05:07:24;99999.28;;;13.53;60.91
6387;BME280;3226;42.162;24.756;2023-05-08T05:09:52;99999.59;;;13.80;59.99
6387;BME280;3226;42.162;24.756;2023-05-08T05:12:19;100002.75;;;13.93;60.05
6387;BME280;3226;42.162;24.756;2023-05-08T05:14:47;100007.72;;;14.06;59.59
6387;BME280;3226;42.162;24.756;2023-05-08T05:17:17;99998.97;;;14.25;57.70
6387;BME280;3226;42.162;24.756;2023-05-08T05:19:45;100004.44;;;14.42;56.13
6387;BME280;3226;42.162;24.756;2023-05-08T05:22:12;100004.66;;;14.68;56.20
6387;BME280;3226;42.162;24.756;2023-05-08T05:24:40;99997.47;;;14.60;55.76
6387;BME280;3226;42.162;24.756;2023-05-08T05:27:08;99998.84;;;14.74;54.74
6387;BME280;3226;42.162;24.756;2023-05-08T05:29:36;99999.56;;;14.57;54.48
6387;BME280;3226;42.162;24.756;2023-05-08T05:32:04;99997.31;;;14.05;55.19
6387;BME280;3226;42.162;24.756;2023-05-08T05:34:35;99964.44;;;14.19;55.46
6387;BME280;3226;42.162;24.756;2023-05-08T05:37:02;99988.81;;;14.78;55.27
6387;BME280;3226;42.162;24.756;2023-05-08T05:39:30;99982.72;;;14.68;54.81
6387;BME280;3226;42.162;24.756;2023-05-08T05:41:58;99980.41;;;14.55;54.97
6387;BME280;3226;42.162;24.756;2023-05-08T05:44:26;99980.91;;;14.40;55.73
6387;BME280;3226;42.162;24.756;2023-05-08T05:46:54;99977.50;;;14.58;53.33
6387;BME280;3226;42.162;24.756;2023-05-08T05:49:22;99984.09;;;14.82;52.88
6387;BME280;3226;42.162;24.756;2023-05-08T05:51:52;99979.03;;;15.71;52.51
6387;BME280;3226;42.162;24.756;2023-05-08T05:54:20;99974.47;;;16.87;46.83
6387;BME280;3226;42.162;24.756;2023-05-08T05:56:48;99968.69;;;17.92;43.49
6387;BME280;3226;42.162;24.756;2023-05-08T05:59:15;99975.31;;;18.05;42.70
6387;BME280;3226;42.162;24.756;2023-05-08T06:01:43;99971.50;;;17.74;43.59
6387;BME280;3226;42.162;24.756;2023-05-08T06:04:12;99964.34;;;17.25;44.37
6387;BME280;3226;42.162;24.756;2023-05-08T06:06:40;99978.06;;;17.12;44.85
6387;BME280;3226;42.162;24.756;2023-05-08T06:09:09;99975.22;;;16.62;45.17
6387;BME280;3226;42.162;24.756;2023-05-08T06:11:37;99967.75;;;16.58;43.94
6387;BME280;3226;42.162;24.756;2023-05-08T06:14:05;99972.41;;;16.64;43.41
6387;BME280;3226;42.162;24.756;2023-05-08T06:16:33;99971.09;;;17.03;43.15
6387;BME280;3226;42.162;24.756;2023-05-08T06:19:01;99965.94;;;17.01;42.50
6387;BME280;3226;42.162;24.756;2023-05-08T06:21:29;99967.53;;;16.86;42.97
6387;BME280;3226;42.162;24.756;2023-05-08T06:23:57;99972.84;;;16.51;45.06
6387;BME280;3226;42.162;24.756;2023-05-08T06:26:26;99973.06;;;16.05;45.69
6387;BME280;3226;42.162;24.756;2023-05-08T06:28:54;99960.88;;;15.50;46.95
6387;BME280;3226;42.162;24.756;2023-05-08T06:31:22;99968.19;;;15.74;47.00
6387;BME280;3226;42.162;24.756;2023-05-08T06:33:50;99957.88;;;15.44;47.55
6387;BME280;3226;42.162;24.756;2023-05-08T06:36:18;99964.25;;;15.96;47.10
6387;BME280;3226;42.162;24.756;2023-05-08T06:38:46;99958.56;;;16.09;47.07
6387;BME280;3226;42.162;24.756;2023-05-08T06:41:14;99958.38;;;16.37;45.45
6387;BME280;3226;42.162;24.756;2023-05-08T06:43:43;99957.78;;;15.90;45.86
6387;BME280;3226;42.162;24.756;2023-05-08T06:46:11;99954.03;;;15.57;46.75
6387;BME280;3226;42.162;24.756;2023-05-08T06:48:39;99944.84;;;15.87;47.62
6387;BME280;3226;42.162;24.756;2023-05-08T06:51:08;99947.84;;;16.11;47.87
6387;BME280;3226;42.162;24.756;2023-05-08T06:53:36;99943.91;;;15.88;48.08
6387;BME280;3226;42.162;24.756;2023-05-08T06:56:04;99951.59;;;16.08;48.61
6387;BME280;3226;42.162;24.756;2023-05-08T06:58:32;99947.06;;;16.18;47.11
6387;BME280;3226;42.162;24.756;2023-05-08T07:01:02;99928.28;;;15.95;46.92
6387;BME280;3226;42.162;24.756;2023-05-08T07:03:30;99942.59;;;15.74;48.22
6387;BME280;3226;42.162;24.756;2023-05-08T07:05:58;99919.06;;;15.81;47.41
6387;BME280;3226;42.162;24.756;2023-05-08T07:08:26;99923.38;;;15.82;48.49
6387;BME280;3226;42.162;24.756;2023-05-08T07:10:55;99941.50;;;16.30;47.23
6387;BME280;3226;42.162;24.756;2023-05-08T07:13:23;99933.06;;;16.61;47.52
6387;BME280;3226;42.162;24.756;2023-05-08T07:15:51;99935.59;;;16.79;47.47
6387;BME280;3226;42.162;24.756;2023-05-08T07:18:21;99930.44;;;17.12;45.93
6387;BME280;3226;42.162;24.756;2023-05-08T07:20:49;99932.28;;;17.28;45.65
6387;BME280;3226;42.162;24.756;2023-05-08T07:23:17;99919.38;;;17.25;45.93
6387;BME280;3226;42.162;24.756;2023-05-08T07:25:45;99925.66;;;17.41;46.28
6387;BME280;3226;42.162;24.756;2023-05-08T07:28:12;99909.13;;;17.55;45.08
6387;BME280;3226;42.162;24.756;2023-05-08T07:30:40;99922.50;;;17.62;44.87
6387;BME280;3226;42.162;24.756;2023-05-08T07:33:08;99923.19;;;17.47;45.16
6387;BME280;3226;42.162;24.756;2023-05-08T07:35:38;99918.56;;;17.41;46.40
6387;BME280;3226;42.162;24.756;2023-05-08T07:38:07;99921.69;;;17.37;46.90
6387;BME280;3226;42.162;24.756;2023-05-08T07:40:35;99924.81;;;17.57;46.94
6387;BME280;3226;42.162;24.756;2023-05-08T07:43:03;99927.13;;;17.85;44.64
6387;BME280;3226;42.162;24.756;2023-05-08T07:45:31;99917.34;;;17.94;44.89
6387;BME280;3226;42.162;24.756;2023-05-08T07:48:00;99921.00;;;18.01;45.38
6387;BME280;3226;42.162;24.756;2023-05-08T07:50:28;99919.66;;;17.97;46.19
6387;BME280;3226;42.162;24.756;2023-05-08T07:52:58;99831.00;;;16.85;46.81
6387;BME280;3226;42.162;24.756;2023-05-08T07:55:26;99921.50;;;17.05;46.70
6387;BME280;3226;42.162;24.756;2023-05-08T07:57:54;99870.47;;;16.78;47.06
6387;BME280;3226;42.162;24.756;2023-05-08T08:00:22;99914.06;;;17.25;47.43
6387;BME280;3226;42.162;24.756;2023-05-08T08:02:50;99899.84;;;17.59;46.80
6387;BME280;3226;42.162;24.756;2023-05-08T08:05:18;99895.84;;;17.80;46.14
6387;BME280;3226;42.162;24.756;2023-05-08T08:07:46;99891.53;;;17.87;47.49
6387;BME280;3226;42.162;24.756;2023-05-08T08:10:16;99886.91;;;17.81;46.74
6387;BME280;3226;42.162;24.756;2023-05-08T08:12:43;99887.56;;;17.75;46.78
6387;BME280;3226;42.162;24.756;2023-05-08T08:15:12;99901.97;;;18.05;46.62
6387;BME280;3226;42.162;24.756;2023-05-08T08:17:40;99888.72;;;18.45;45.92
6387;BME280;3226;42.162;24.756;2023-05-08T08:20:08;99888.25;;;18.73;44.66
6387;BME280;3226;42.162;24.756;2023-05-08T08:22:36;99893.72;;;18.72;44.98
6387;BME280;3226;42.162;24.756;2023-05-08T08:25:05;99869.38;;;18.68;43.83
6387;BME280;3226;42.162;24.756;2023-05-08T08:27:34;99881.06;;;18.59;44.24
6387;BME280;3226;42.162;24.756;2023-05-08T08:30:03;99882.06;;;18.58;45.38
6387;BME280;3226;42.162;24.756;2023-05-08T08:32:44;99879.47;;;18.41;46.50
6387;BME280;3226;42.162;24.756;2023-05-08T08:35:12;99874.25;;;18.56;44.50
6387;BME280;3226;42.162;24.756;2023-05-08T08:37:41;99881.63;;;18.38;45.85
6387;BME280;3226;42.162;24.756;2023-05-08T08:40:09;99876.88;;;18.25;46.23
6387;BME280;3226;42.162;24.756;2023-05-08T08:42:38;99874.50;;;17.73;46.44
6387;BME280;3226;42.162;24.756;2023-05-08T08:45:07;99873.34;;;17.68;46.99
6387;BME280;3226;42.162;24.756;2023-05-08T08:47:36;99873.91;;;18.19;46.59
6387;BME280;3226;42.162;24.756;2023-05-08T08:50:07;99850.25;;;18.18;46.28
6387;BME280;3226;42.162;24.756;2023-05-08T08:52:42;99861.72;;;18.73;46.58
6387;BME280;3226;42.162;24.756;2023-05-08T08:55:15;99863.69;;;18.79;46.52
6387;BME280;3226;42.162;24.756;2023-05-08T08:57:51;99853.69;;;19.13;45.74
6387;BME280;3226;42.162;24.756;2023-05-08T09:00:21;99857.56;;;18.79;45.80
6387;BME280;3226;42.162;24.756;2023-05-08T09:02:50;99856.31;;;18.98;46.25
6387;BME280;3226;42.162;24.756;2023-05-08T09:05:20;99855.00;;;18.86;44.68
6387;BME280;3226;42.162;24.756;2023-05-08T09:07:49;99845.63;;;19.06;45.57
6387;BME280;3226;42.162;24.756;2023-05-08T09:10:22;99846.28;;;19.47;44.05
6387;BME280;3226;42.162;24.756;2023-05-08T09:12:52;99851.25;;;19.65;44.19
6387;BME280;3226;42.162;24.756;2023-05-08T09:15:20;99843.63;;;19.47;44.80
6387;BME280;3226;42.162;24.756;2023-05-08T09:17:48;99842.84;;;19.91;44.27
6387;BME280;3226;42.162;24.756;2023-05-08T09:20:16;99833.22;;;20.05;42.54
6387;BME280;3226;42.162;24.756;2023-05-08T09:22:44;99831.19;;;20.22;42.23
6387;BME280;3226;42.162;24.756;2023-05-08T09:25:13;99819.47;;;19.72;44.59
6387;BME280;3226;42.162;24.756;2023-05-08T09:27:41;99813.59;;;19.76;44.29
6387;BME280;3226;42.162;24.756;2023-05-08T09:30:11;99814.09;;;19.95;43.19
6387;BME280;3226;42.162;24.756;2023-05-08T09:32:41;99797.94;;;19.67;43.42
6387;BME280;3226;42.162;24.756;2023-05-08T09:35:10;99801.31;;;19.60;43.30
6387;BME280;3226;42.162;24.756;2023-05-08T09:37:40;99797.50;;;20.08;43.38
6387;BME280;3226;42.162;24.756;2023-05-08T09:40:14;99795.53;;;20.54;42.93
6387;BME280;3226;42.162;24.756;2023-05-08T09:42:42;99779.09;;;20.87;42.82
6387;BME280;3226;42.162;24.756;2023-05-08T09:45:25;99785.47;;;20.71;43.13
6387;BME280;3226;42.162;24.756;2023-05-08T09:47:53;99783.38;;;20.66;42.39
6387;BME280;3226;42.162;24.756;2023-05-08T09:50:22;99777.94;;;20.96;42.01
6387;BME280;3226;42.162;24.756;2023-05-08T09:52:50;99778.00;;;21.31;41.80
6387;BME280;3226;42.162;24.756;2023-05-08T09:55:19;99771.31;;;21.42;41.67
6387;BME280;3226;42.162;24.756;2023-05-08T09:57:54;99764.31;;;21.70;41.96
6387;BME280;3226;42.162;24.756;2023-05-08T10:00:25;99754.28;;;21.72;41.66
6387;BME280;3226;42.162;24.756;2023-05-08T10:02:55;99768.38;;;22.01;41.24
6387;BME280;3226;42.162;24.756;2023-05-08T10:05:25;99763.44;;;21.98;41.29
6387;BME280;3226;42.162;24.756;2023-05-08T10:07:56;99760.22;;;22.16;40.53
6387;BME280;3226;42.162;24.756;2023-05-08T10:10:25;99753.19;;;22.08;41.38
6387;BME280;3226;42.162;24.756;2023-05-08T10:12:55;99731.88;;;22.01;40.80
6387;BME280;3226;42.162;24.756;2023-05-08T10:15:27;99743.38;;;22.08;41.04
6387;BME280;3226;42.162;24.756;2023-05-08T10:18:01;99746.44;;;21.63;41.47
6387;BME280;3226;42.162;24.756;2023-05-08T10:20:31;99743.06;;;21.13;41.50
6387;BME280;3226;42.162;24.756;2023-05-08T10:22:59;99745.84;;;20.54;42.81
6387;BME280;3226;42.162;24.756;2023-05-08T10:25:31;99733.72;;;20.51;43.16
6387;BME280;3226;42.162;24.756;2023-05-08T10:28:06;99734.72;;;20.94;43.26
6387;BME280;3226;42.162;24.756;2023-05-08T10:30:42;99723.59;;;21.41;42.70
6387;BME280;3226;42.162;24.756;2023-05-08T10:33:13;99726.59;;;21.31;43.11
6387;BME280;3226;42.162;24.756;2023-05-08T10:35:44;99729.47;;;21.64;42.43
6387;BME280;3226;42.162;24.756;2023-05-08T10:38:14;99726.75;;;21.58;42.77
6387;BME280;3226;42.162;24.756;2023-05-08T10:40:43;99715.22;;;21.50;42.33
6387;BME280;3226;42.162;24.756;2023-05-08T10:43:11;99716.78;;;21.38;42.45
6387;BME280;3226;42.162;24.756;2023-05-08T10:45:41;99721.41;;;21.58;42.56
6387;BME280;3226;42.162;24.756;2023-05-08T10:48:15;99709.88;;;21.50;41.14
6387;BME280;3226;42.162;24.756;2023-05-08T10:50:53;99717.28;;;21.55;41.37
6387;BME280;3226;42.162;24.756;2023-05-08T10:53:30;99699.78;;;21.74;41.22
6387;BME280;3226;42.162;24.756;2023-05-08T10:56:01;99717.97;;;22.19;41.02
6387;BME280;3226;42.162;24.756;2023-05-08T10:58:30;99704.38;;;21.94;42.89
6387;BME280;3226;42.162;24.756;2023-05-08T11:01:16;99711.84;;;22.32;40.89
6387;BME280;3226;42.162;24.756;2023-05-08T11:03:47;99722.72;;;22.37;39.98
6387;BME280;3226;42.162;24.756;2023-05-08T11:06:42;99715.22;;;21.50;41.10
6387;BME280;3226;42.162;24.756;2023-05-08T11:09:18;99706.75;;;21.75;42.21
6387;BME280;3226;42.162;24.756;2023-05-08T11:11:55;99710.94;;;22.05;42.78
6387;BME280;3226;42.162;24.756;2023-05-08T11:14:26;99703.97;;;22.04;41.45
6387;BME280;3226;42.162;24.756;2023-05-08T11:17:07;99698.81;;;21.95;41.95
6387;BME280;3226;42.162;24.756;2023-05-08T11:19:36;99684.13;;;22.13;41.09
6387;BME280;3226;42.162;24.756;2023-05-08T11:22:21;99690.28;;;22.34;41.69
6387;BME280;3226;42.162;24.756;2023-05-08T11:24:55;99700.63;;;21.81;41.47
6387;BME280;3226;42.162;24.756;2023-05-08T11:27:38;99696.13;;;21.82;41.70
6387;BME280;3226;42.162;24.756;2023-05-08T11:30:24;99694.72;;;21.86;41.79
6387;BME280;3226;42.162;24.756;2023-05-08T11:32:58;99693.69;;;21.87;41.64
6387;BME280;3226;42.162;24.756;2023-05-08T11:35:40;99690.34;;;22.47;42.00
6387;BME280;3226;42.162;24.756;2023-05-08T11:38:16;99684.38;;;22.86;41.05
6387;BME280;3226;42.162;24.756;2023-05-08T11:40:45;99671.84;;;22.93;40.91
6387;BME280;3226;42.162;24.756;2023-05-08T11:46:19;99683.38;;;22.60;41.14
6387;BME280;3226;42.162;24.756;2023-05-08T11:48:57;99674.72;;;22.91;42.01
6387;BME280;3226;42.162;24.756;2023-05-08T11:51:30;99670.44;;;22.84;40.31
6387;BME280;3226;42.162;24.756;2023-05-08T11:53:58;99670.59;;;22.35;41.33
6387;BME280;3226;42.162;24.756;2023-05-08T11:56:26;99671.44;;;22.69;40.99
6387;BME280;3226;42.162;24.756;2023-05-08T11:59:01;99666.50;;;22.93;40.54
6387;BME280;3226;42.162;24.756;2023-05-08T12:01:30;99662.63;;;22.82;40.40
6387;BME280;3226;42.162;24.756;2023-05-08T12:04:01;99660.19;;;22.53;40.94
6387;BME280;3226;42.162;24.756;2023-05-08T12:06:29;99651.34;;;22.46;40.97
6387;BME280;3226;42.162;24.756;2023-05-08T12:08:58;99653.97;;;22.19;42.74
6387;BME280;3226;42.162;24.756;2023-05-08T12:11:26;99601.63;;;21.91;42.51
6387;BME280;3226;42.162;24.756;2023-05-08T12:13:54;99638.81;;;22.33;42.01
6387;BME280;3226;42.162;24.756;2023-05-08T12:16:23;99647.84;;;22.46;41.75
6387;BME280;3226;42.162;24.756;2023-05-08T12:18:52;99644.16;;;22.47;41.93
6387;BME280;3226;42.162;24.756;2023-05-08T12:21:24;99622.16;;;22.38;42.15
6387;BME280;3226;42.162;24.756;2023-05-08T12:23:53;99631.03;;;22.52;41.68
6387;BME280;3226;42.162;24.756;2023-05-08T12:26:21;99628.97;;;22.61;41.22
6387;BME280;3226;42.162;24.756;2023-05-08T12:28:53;99628.94;;;22.34;41.99
6387;BME280;3226;42.162;24.756;2023-05-08T12:31:21;99622.38;;;22.09;42.42
6387;BME280;3226;42.162;24.756;2023-05-08T12:33:50;99627.50;;;22.45;42.13
6387;BME280;3226;42.162;24.756;2023-05-08T12:36:19;99623.00;;;22.38;41.56
6387;BME280;3226;42.162;24.756;2023-05-08T12:38:49;99629.94;;;22.13;41.48
6387;BME280;3226;42.162;24.756;2023-05-08T12:41:22;99627.72;;;22.16;41.99
6387;BME280;3226;42.162;24.756;2023-05-08T12:43:50;99621.38;;;22.51;41.20
6387;BME280;3226;42.162;24.756;2023-05-08T12:46:18;99621.97;;;22.33;41.99
6387;BME280;3226;42.162;24.756;2023-05-08T12:48:47;99621.97;;;22.19;42.21
6387;BME280;3226;42.162;24.756;2023-05-08T12:51:15;99620.31;;;22.25;42.50
6387;BME280;3226;42.162;24.756;2023-05-08T12:53:45;99603.50;;;22.38;41.64
6387;BME280;3226;42.162;24.756;2023-05-08T12:56:20;99621.97;;;22.39;41.92
6387;BME280;3226;42.162;24.756;2023-05-08T12:58:49;99621.53;;;22.09;42.55
6387;BME280;3226;42.162;24.756;2023-05-08T13:01:16;99622.97;;;22.12;42.93
6387;BME280;3226;42.162;24.756;2023-05-08T13:03:51;99619.31;;;22.39;42.18
6387;BME280;3226;42.162;24.756;2023-05-08T13:06:28;99621.56;;;22.22;42.78
6387;BME280;3226;42.162;24.756;2023-05-08T13:08:57;99611.31;;;22.60;42.48
6387;BME280;3226;42.162;24.756;2023-05-08T13:11:30;99622.28;;;23.17;41.80
6387;BME280;3226;42.162;24.756;2023-05-08T13:13:59;99625.84;;;22.91;40.63
6387;BME280;3226;42.162;24.756;2023-05-08T13:16:27;99617.06;;;22.57;41.61
6387;BME280;3226;42.162;24.756;2023-05-08T13:18:55;99605.59;;;22.49;41.79
6387;BME280;3226;42.162;24.756;2023-05-08T13:21:23;99604.91;;;22.74;41.52
6387;BME280;3226;42.162;24.756;2023-05-08T13:23:53;99571.91;;;22.62;41.76
6387;BME280;3226;42.162;24.756;2023-05-08T13:26:22;99601.84;;;22.77;41.94
6387;BME280;3226;42.162;24.756;2023-05-08T13:28:52;99593.66;;;22.38;41.99
6387;BME280;3226;42.162;24.756;2023-05-08T13:31:22;99587.47;;;22.38;42.75
6387;BME280;3226;42.162;24.756;2023-05-08T13:33:50;99587.94;;;22.48;42.16